Time;durP1;ratioP1;P1;durP2;ratioP2;P2;SDS_P1;SDS_P2;PMS_P1;PMS_P2;Temp;Humidity;BMP_temperature;BMP_pressure;BME280_temperature;BME280_humidity;BME280_pressure;Samples;Min_cycle;Max_cycle;Signal;HPM_P1;HPM_P2
2021/04/05 00:00:29;;;;;;;6.97;4.20;;;;;;;4.00;67.05;98290.20;1735912;82;22213;-73
2021/04/05 00:02:58;;;;;;;8.80;4.20;;;;;;;4.01;67.06;98288.48;1732978;82;21100;-73
2021/04/05 00:05:29;;;;;;;5.67;4.12;;;;;;;4.02;67.11;98292.27;1725388;82;21580;-73
2021/04/05 00:07:57;;;;;;;10.00;4.40;;;;;;;4.02;67.11;98281.10;1736261;81;21163;-73
2021/04/05 00:10:35;;;;;;;8.75;4.30;;;;;;;4.02;67.21;98274.65;1734572;81;21163;-73
2021/04/05 00:13:11;;;;;;;10.28;4.40;;;;;;;4.01;67.19;98261.36;1747207;81;21218;-71
2021/04/05 00:15:39;;;;;;;8.80;5.20;;;;;;;4.01;67.25;98261.36;1741353;81;21249;-72
2021/04/05 00:18:06;;;;;;;9.08;4.35;;;;;;;3.99;67.29;98258.00;1752577;81;21182;-72
2021/04/05 00:20:38;;;;;;;13.58;5.62;;;;;;;3.96;67.33;98238.77;1748316;81;28449;-72
2021/04/05 00:23:05;;;;;;;9.03;4.92;;;;;;;3.93;67.26;98227.28;1741766;81;21144;-73
2021/04/05 00:25:33;;;;;;;7.80;4.53;;;;;;;3.90;67.38;98211.93;1745395;81;21262;-73
2021/04/05 00:28:01;;;;;;;9.25;5.90;;;;;;;3.85;67.48;98206.12;1747650;81;21185;-72
2021/04/05 00:30:34;;;;;;;14.38;5.40;;;;;;;3.78;67.49;98196.07;1754016;81;22217;-73
2021/04/05 00:33:02;;;;;;;7.83;5.10;;;;;;;3.74;67.47;98204.84;1748294;81;21211;-72
2021/04/05 00:35:33;;;;;;;10.50;5.10;;;;;;;3.70;67.60;98191.70;1745734;81;21286;-72
2021/04/05 00:38:04;;;;;;;8.48;5.55;;;;;;;3.68;67.57;98179.30;1746776;81;21629;-72
2021/04/05 00:40:42;;;;;;;8.40;5.60;;;;;;;3.63;67.57;98176.08;1724521;80;21168;-72
2021/04/05 00:43:13;;;;;;;7.75;5.53;;;;;;;3.58;67.63;98171.56;1745845;81;21234;-72
2021/04/05 00:45:40;;;;;;;9.03;5.62;;;;;;;3.55;67.67;98167.83;1749852;81;21044;-72
2021/04/05 00:48:09;;;;;;;8.93;5.58;;;;;;;3.50;67.81;98147.41;1746198;81;21165;-72
2021/04/05 00:50:53;;;;;;;10.50;5.92;;;;;;;3.47;67.93;98150.55;1741957;81;21256;-72
2021/04/05 00:53:25;;;;;;;9.58;5.25;;;;;;;3.45;67.90;98154.51;1763259;80;21174;-71
2021/04/05 00:55:52;;;;;;;9.05;5.70;;;;;;;3.43;67.93;98147.73;1748040;80;21410;-72
2021/04/05 00:58:22;;;;;;;8.23;5.60;;;;;;;3.41;67.88;98143.08;1714660;81;21651;-72
2021/04/05 01:00:53;;;;;;;8.45;5.35;;;;;;;3.40;67.92;98134.97;1740011;80;21764;-72
2021/04/05 01:03:24;;;;;;;8.40;5.20;;;;;;;3.39;67.99;98135.85;1766878;80;21417;-72
2021/04/05 01:05:58;;;;;;;7.92;5.50;;;;;;;3.38;67.99;98125.16;1745346;81;21774;-72
2021/04/05 01:08:25;;;;;;;9.40;5.17;;;;;;;3.36;68.08;98119.63;1747466;81;21211;-72
2021/04/05 01:10:52;;;;;;;9.93;6.03;;;;;;;3.35;68.32;98106.32;1745868;81;21199;-72
2021/04/05 01:13:20;;;;;;;10.43;5.92;;;;;;;3.38;68.19;98099.36;1730978;82;21222;-72
2021/04/05 01:15:48;;;;;;;14.25;5.92;;;;;;;3.35;68.08;98081.81;1730191;81;22294;-72
2021/04/05 01:18:16;;;;;;;10.43;5.80;;;;;;;3.39;68.27;98076.52;1736217;82;21081;-72
2021/04/05 01:20:44;;;;;;;14.58;5.50;;;;;;;3.41;68.34;98077.29;1733437;82;21143;-72
2021/04/05 01:23:14;;;;;;;10.45;5.15;;;;;;;3.40;68.31;98071.76;1731685;82;21192;-72
2021/04/05 01:25:43;;;;;;;9.28;5.47;;;;;;;3.41;68.39;98054.07;1728211;82;21239;-72
2021/04/05 01:28:10;;;;;;;7.70;5.35;;;;;;;3.42;68.35;98042.83;1726906;82;21753;-72
2021/04/05 01:30:47;;;;;;;11.60;5.80;;;;;;;3.42;68.37;98042.83;1731384;81;21170;-72
2021/04/05 01:33:24;;;;;;;10.40;5.80;;;;;;;3.41;68.41;98037.30;1734273;82;21225;-72
2021/04/05 01:35:57;;;;;;;;;;;;;;;3.38;68.40;98032.28;1735430;81;21252;-73
2021/04/05 01:38:28;;;;;;;10.28;6.03;;;;;;;3.36;68.51;98026.75;1731731;82;20294;-73
2021/04/05 01:41:00;;;;;;;10.98;6.20;;;;;;;3.31;68.51;98017.55;1731585;82;21425;-73
2021/04/05 01:43:27;;;;;;;9.98;6.22;;;;;;;3.27;68.55;98014.24;1732614;82;21165;-73
2021/04/05 01:45:56;;;;;;;9.58;5.55;;;;;;;3.24;68.61;98005.36;1733124;81;21199;-73
2021/04/05 01:48:26;;;;;;;9.13;5.03;;;;;;;3.21;68.69;98006.78;1727108;81;21239;-72
2021/04/05 01:51:06;;;;;;;10.55;5.25;;;;;;;3.18;68.71;97999.19;1725842;82;21201;-72
2021/04/05 01:53:35;;;;;;;9.65;6.03;;;;;;;3.17;68.72;98001.39;1730850;82;21438;-72
2021/04/05 01:56:05;;;;;;;11.00;6.40;;;;;;;3.17;68.76;97987.67;1725525;81;21631;-72
2021/04/05 01:58:36;;;;;;;18.35;6.28;;;;;;;3.16;68.78;97980.36;1725749;81;21257;-72
2021/04/05 02:01:08;;;;;;;12.98;6.92;;;;;;;3.15;68.88;97981.28;1715430;83;21228;-72
2021/04/05 02:03:37;;;;;;;14.68;6.30;;;;;;;3.15;68.92;97970.95;1715327;81;21042;-73
2021/04/05 02:06:22;;;;;;;11.60;6.50;;;;;;;3.16;68.95;97953.73;1714389;83;21209;-73
2021/04/05 02:08:50;;;;;;;8.53;6.08;;;;;;;3.16;68.95;97954.57;1726144;82;21196;-73
2021/04/05 02:11:29;;;;;;;11.73;6.37;;;;;;;3.17;68.94;97949.81;1718165;81;21244;-73
2021/04/05 02:13:59;;;;;;;9.75;6.10;;;;;;;3.17;69.00;97956.27;1731753;81;21642;-73
2021/04/05 02:16:27;;;;;;;10.75;5.83;;;;;;;3.20;69.09;97950.13;1714404;81;21144;-72
2021/04/05 02:18:56;;;;;;;11.45;5.92;;;;;;;3.20;69.11;97948.38;1724983;81;21274;-73
2021/04/05 02:21:26;;;;;;;12.90;6.35;;;;;;;3.22;69.22;97944.00;1698167;81;21226;-73
2021/04/05 02:23:56;;;;;;;12.60;6.17;;;;;;;3.22;69.20;97931.10;1726848;81;21178;-73
2021/04/05 02:26:25;;;;;;;13.88;6.33;;;;;;;3.22;69.22;97933.69;1722099;81;21185;-73
2021/04/05 02:29:00;;;;;;;11.80;5.67;;;;;;;3.22;69.24;97925.08;1721485;81;21189;-73
2021/04/05 02:31:30;;;;;;;11.45;5.55;;;;;;;3.21;69.35;97922.96;1716663;81;22168;-72
2021/04/05 02:33:59;;;;;;;11.33;4.75;;;;;;;3.22;69.30;97919.50;1711552;81;21680;-73
2021/04/05 02:36:30;;;;;;;9.40;5.40;;;;;;;3.22;69.37;97910.47;1715802;81;21577;-72
2021/04/05 02:39:00;;;;;;;8.88;5.72;;;;;;;3.24;69.30;97893.16;1715826;81;21168;-73
2021/04/05 02:44:22;;;;;;;9.55;5.65;;;;;;;3.26;69.33;97895.22;1673680;82;21216;-72
2021/04/05 02:46:49;;;;;;;10.90;5.00;;;;;;;3.28;69.46;97894.70;1660056;84;21217;-72
2021/04/05 02:49:18;;;;;;;;;;;;;;;3.25;69.39;97884.53;1677071;83;21228;-72
2021/04/05 02:51:50;;;;;;;14.40;5.85;;;;;;;3.24;69.60;97860.91;1675523;84;20596;-73
2021/04/05 02:54:22;;;;;;;12.47;5.37;;;;;;;3.23;69.60;97864.41;1663329;84;21708;-73
2021/04/05 02:56:51;;;;;;;8.70;5.55;;;;;;;3.23;69.56;97862.30;1663840;84;21240;-73
2021/04/05 02:59:23;;;;;;;8.93;5.17;;;;;;;3.21;69.64;97840.89;1665080;84;21179;-73
2021/04/05 03:01:51;;;;;;;12.30;5.85;;;;;;;3.19;69.57;97833.21;1670089;84;21147;-73
2021/04/05 03:04:18;;;;;;;11.15;6.05;;;;;;;3.20;69.65;97837.48;1680649;84;21183;-72
2021/04/05 03:06:49;;;;;;;7.60;4.60;;;;;;;3.19;69.67;97830.63;1666426;84;21204;-73
2021/04/05 03:09:17;;;;;;;9.05;5.35;;;;;;;3.19;69.77;97820.31;1670665;84;22000;-73
2021/04/05 03:11:48;;;;;;;10.63;5.20;;;;;;;3.19;69.80;97815.16;1666480;84;21174;-73
2021/04/05 03:14:14;;;;;;;11.73;5.65;;;;;;;3.18;69.83;97798.03;1674711;84;21621;-73
2021/04/05 03:16:44;;;;;;;11.88;6.00;;;;;;;3.18;69.75;97790.75;1677969;84;28356;-73
2021/04/05 03:19:12;;;;;;;10.15;6.00;;;;;;;3.16;69.86;97789.52;1693296;83;21201;-72
2021/04/05 03:21:43;;;;;;;7.58;5.35;;;;;;;3.14;69.88;97784.91;1669091;84;22846;-72
2021/04/05 03:24:13;;;;;;;11.25;5.87;;;;;;;3.14;69.91;97778.47;1670198;84;21212;-73
2021/04/05 03:26:40;;;;;;;10.68;6.33;;;;;;;3.13;69.89;97769.04;1669902;84;21254;-72
2021/04/05 03:29:11;;;;;;;8.05;5.70;;;;;;;3.11;69.96;97764.44;1678403;83;21276;-73
2021/04/05 03:31:41;;;;;;;12.53;5.97;;;;;;;3.10;70.03;97756.30;1683098;84;21206;-72
2021/04/05 03:34:25;;;;;;;13.18;6.20;;;;;;;3.10;70.04;97753.72;1642986;86;22280;-72
2021/04/05 03:36:57;;;;;;;10.30;5.95;;;;;;;3.10;70.12;97757.59;1663643;84;22109;-73
2021/04/05 03:39:25;;;;;;;14.73;6.22;;;;;;;3.09;70.13;97737.87;1661211;84;21205;-73
2021/04/05 03:42:09;;;;;;;11.28;6.60;;;;;;;3.10;70.14;97725.36;1665305;84;21821;-72
2021/04/05 03:45:01;;;;;;;12.33;7.42;;;;;;;3.10;70.15;97735.67;1680910;83;21208;-73
2021/04/05 03:47:33;;;;;;;11.35;6.65;;;;;;;3.07;70.26;97717.77;1690977;83;22790;-72
2021/04/05 03:50:20;;;;;;;13.38;6.60;;;;;;;3.06;70.22;97699.36;1687452;83;21196;-72
2021/04/05 03:53:14;;;;;;;11.53;7.25;;;;;;;3.05;70.31;97706.69;1660606;85;21211;-72
2021/04/05 03:55:43;;;;;;;14.33;7.30;;;;;;;3.04;70.38;97702.45;1686307;82;21241;-73
2021/04/05 03:58:12;;;;;;;15.72;8.68;;;;;;;3.01;70.38;97689.72;1721927;81;21021;-73
2021/04/05 04:00:41;;;;;;;11.95;8.13;;;;;;;2.99;70.33;97683.80;1690907;82;21635;-73
2021/04/05 04:03:11;;;;;;;12.78;7.90;;;;;;;2.98;70.44;97670.53;1720395;81;21191;-73
2021/04/05 04:05:41;;;;;;;12.55;6.97;;;;;;;2.96;70.46;97669.77;1715385;81;21216;-73
2021/04/05 04:11:09;;;;;;;14.03;8.48;;;;;;;2.99;70.49;97651.11;1825995;77;22019;-72
2021/04/05 04:13:44;;;;;;;10.68;7.78;;;;;;;2.97;70.57;97646.94;1796475;78;21187;-72
2021/04/05 04:16:14;;;;;;;12.10;8.08;;;;;;;2.96;70.68;97637.55;1798761;78;22704;-73
2021/04/05 04:18:42;;;;;;;14.20;8.58;;;;;;;2.94;70.63;97622.17;1801498;78;21080;-73
2021/04/05 04:21:11;;;;;;;14.07;9.28;;;;;;;2.94;70.66;97621.31;1797581;78;21060;-73
2021/04/05 04:23:39;;;;;;;12.80;7.65;;;;;;;2.94;70.65;97613.58;1796939;77;21633;-73
2021/04/05 04:26:07;;;;;;;18.77;9.63;;;;;;;2.94;70.70;97608.42;1801725;78;21183;-73
2021/04/05 04:28:34;;;;;;;20.50;9.90;;;;;;;2.96;70.73;97614.34;1794472;78;21076;-72
2021/04/05 04:31:04;;;;;;;16.35;8.95;;;;;;;2.99;70.66;97602.59;1804297;78;21064;-73
2021/04/05 04:33:32;;;;;;;11.95;7.33;;;;;;;2.99;70.78;97586.66;1798885;78;21014;-72
2021/04/05 04:35:59;;;;;;;11.68;8.23;;;;;;;3.00;70.79;97592.67;1793928;78;21055;-73
2021/04/05 04:38:27;;;;;;;16.15;8.78;;;;;;;3.01;70.87;97573.70;1797642;78;22182;-73
2021/04/05 04:40:55;;;;;;;15.45;9.65;;;;;;;3.00;70.74;97573.34;1793605;78;21213;-73
2021/04/05 04:43:22;;;;;;;16.55;9.30;;;;;;;3.01;70.76;97568.55;1804106;78;21057;-73
2021/04/05 04:45:49;;;;;;;15.50;9.23;;;;;;;3.02;70.80;97542.67;1802037;78;21020;-72
2021/04/05 04:48:16;;;;;;;13.85;9.00;;;;;;;3.02;70.84;97526.38;1798638;78;21133;-73
2021/04/05 04:50:44;;;;;;;16.70;8.78;;;;;;;3.03;70.87;97517.75;1793969;78;21745;-72
2021/04/05 04:53:11;;;;;;;12.55;8.65;;;;;;;3.05;70.83;97504.30;1794125;78;21143;-72
2021/04/05 04:55:38;;;;;;;14.40;8.45;;;;;;;3.08;70.90;97466.75;1793390;77;21166;-73
2021/04/05 04:58:06;;;;;;;18.82;9.25;;;;;;;3.06;70.88;97484.06;1759168;78;21531;-73
2021/04/05 05:00:35;;;;;;;14.53;9.23;;;;;;;3.08;70.90;97498.98;1803888;78;21646;-73
2021/04/05 05:03:05;;;;;;;14.93;9.90;;;;;;;3.09;71.00;97495.50;1794074;78;21066;-73
2021/04/05 05:05:34;;;;;;;16.48;8.63;;;;;;;3.08;70.97;97471.91;1797109;77;21198;-72
2021/04/05 05:08:02;;;;;;;14.58;8.55;;;;;;;3.09;70.95;97463.28;1795425;78;22600;-73
2021/04/05 05:10:29;;;;;;;;;;;;;;;3.10;71.03;97461.06;1798771;78;21259;-73
2021/04/05 05:12:57;;;;;;;;;;;;;;;3.11;71.14;97452.43;1806411;78;20265;-73
2021/04/05 05:15:24;;;;;;;;;;;;;;;3.12;71.24;97438.16;1808376;78;20613;-73
2021/04/05 05:17:53;;;;;;;14.60;7.50;;;;;;;3.14;71.06;97453.55;1797233;78;21254;-72
2021/04/05 05:20:21;;;;;;;15.00;8.15;;;;;;;3.16;71.13;97449.13;1796038;78;21002;-73
2021/04/05 05:22:56;;;;;;;19.32;8.60;;;;;;;3.20;71.07;97435.17;1798892;78;21180;-74
2021/04/05 05:25:24;;;;;;;12.85;8.13;;;;;;;3.22;71.13;97428.19;1763908;80;21213;-73
2021/04/05 05:28:08;;;;;;;13.08;8.13;;;;;;;3.24;71.19;97441.81;1748398;81;21119;-73
2021/04/05 05:30:36;;;;;;;16.97;9.40;;;;;;;3.27;71.12;97437.77;1768787;80;22156;-72
2021/04/05 05:33:06;;;;;;;14.18;7.58;;;;;;;3.28;71.12;97407.22;1740921;81;21186;-72
2021/04/05 05:35:36;;;;;;;15.63;8.10;;;;;;;3.31;71.09;97398.02;1763646;80;21003;-72
2021/04/05 05:38:06;;;;;;;13.62;8.00;;;;;;;3.33;71.14;97400.06;1766968;80;21725;-72
2021/04/05 05:40:39;;;;;;;13.40;7.83;;;;;;;3.35;71.11;97399.97;1743966;80;21132;-72
2021/04/05 05:43:44;;;;;;;19.60;8.00;;;;;;;3.38;71.14;97406.70;1738179;81;21208;-72
2021/04/05 05:46:34;;;;;;;15.98;8.20;;;;;;;3.45;71.25;97391.27;1742101;81;21084;-73
2021/04/05 05:49:38;;;;;;;14.87;9.23;;;;;;;3.57;71.28;97378.97;1767298;80;21166;-72
2021/04/05 05:53:04;;;;;;;20.82;8.98;;;;;;;3.70;71.22;97363.63;1746972;81;21583;-74
2021/04/05 05:55:59;;;;;;;16.67;8.85;;;;;;;3.83;71.16;97345.67;1740995;81;21621;-72
2021/04/05 05:58:40;;;;;;;16.17;8.53;;;;;;;3.94;71.12;97348.47;1739798;81;21989;-73
2021/04/05 06:01:28;;;;;;;15.85;8.78;;;;;;;3.98;71.08;97342.22;1735638;81;21342;-72
2021/04/05 06:04:06;;;;;;;14.33;9.03;;;;;;;4.05;71.15;97315.09;1748878;81;21133;-73
2021/04/05 06:06:41;;;;;;;18.90;8.95;;;;;;;4.11;71.07;97303.10;1735479;81;21637;-73
2021/04/05 06:09:43;;;;;;;13.95;9.50;;;;;;;4.18;71.07;97303.13;1740203;81;21212;-73
2021/04/05 06:12:29;;;;;;;12.95;8.40;;;;;;;4.22;70.95;97283.92;1717114;81;21293;-72
2021/04/05 06:15:14;;;;;;;16.15;8.95;;;;;;;4.25;70.89;97283.73;1672592;84;21149;-72
2021/04/05 06:18:05;;;;;;;19.17;9.33;;;;;;;4.30;70.93;97278.77;1671427;84;21681;-71
2021/04/05 06:20:51;;;;;;;15.43;9.13;;;;;;;4.33;71.01;97270.83;1669714;84;21251;-72
2021/04/05 06:23:42;;;;;;;18.95;10.05;;;;;;;4.37;70.94;97270.99;1667796;84;21279;-72
2021/04/05 06:26:38;;;;;;;15.72;10.18;;;;;;;4.39;70.92;97273.03;1669821;84;21241;-72
2021/04/05 06:29:15;;;;;;;18.17;10.65;;;;;;;4.42;71.01;97277.53;1667947;84;21310;-74
2021/04/05 06:32:21;;;;;;;13.88;9.93;;;;;;;4.39;70.87;97267.86;1667746;84;21737;-74
2021/04/05 06:35:08;;;;;;;18.05;10.75;;;;;;;4.34;70.95;97264.72;1670760;84;21227;-71
2021/04/05 06:38:10;;;;;;;17.65;11.00;;;;;;;4.31;71.02;97245.54;1667560;84;22145;-73
2021/04/05 06:40:39;;;;;;;15.75;10.53;;;;;;;4.33;71.03;97254.03;1669263;84;21398;-71
2021/04/05 06:43:32;;;;;;;18.12;10.40;;;;;;;4.39;71.01;97242.02;1669418;84;21282;-72
2021/04/05 06:46:07;;;;;;;17.42;10.72;;;;;;;4.38;70.93;97246.83;1669325;84;21292;-72
2021/04/05 06:49:10;;;;;;;26.35;11.65;;;;;;;4.37;71.04;97245.16;1669922;84;21311;-72
2021/04/05 06:52:09;;;;;;;19.32;11.60;;;;;;;4.43;70.97;97235.30;1823252;77;22411;-71
2021/04/05 06:54:57;;;;;;;19.60;10.53;;;;;;;4.41;71.00;97236.31;1798542;78;21720;-72
2021/04/05 06:58:00;;;;;;;15.65;9.80;;;;;;;4.48;71.12;97232.40;1742269;80;21225;-72
2021/04/05 07:01:00;;;;;;;17.10;10.70;;;;;;;4.55;71.01;97237.56;1744175;80;21069;-72
2021/04/05 07:04:11;;;;;;;13.60;10.72;;;;;;;4.62;71.13;97227.22;1759433;80;21143;-72
2021/04/05 07:07:08;;;;;;;16.25;10.75;;;;;;;4.76;71.02;97235.84;1760047;80;21110;-71
2021/04/05 07:10:04;;;;;;;22.37;11.05;;;;;;;4.80;70.88;97232.16;1746335;81;21029;-73
2021/04/05 07:12:54;;;;;;;15.58;10.82;;;;;;;4.76;70.72;97234.11;1679682;83;21385;-72
2021/04/05 07:15:43;;;;;;;20.20;11.45;;;;;;;4.70;70.80;97222.41;1721369;81;21120;-72
2021/04/05 07:18:35;;;;;;;21.35;12.10;;;;;;;4.64;70.79;97202.09;1714792;81;21185;-73
2021/04/05 07:21:29;;;;;;;17.42;10.90;;;;;;;4.55;70.81;97216.89;1718955;81;21298;-72
2021/04/05 07:24:37;;;;;;;12.82;10.18;;;;;;;4.47;70.91;97220.42;1716303;82;21251;-72
2021/04/05 07:27:24;;;;;;;17.80;11.70;;;;;;;4.54;70.95;97213.95;1838300;75;22345;-71
2021/04/05 07:30:13;;;;;;;19.48;12.13;;;;;;;4.44;70.90;97211.57;1818350;77;21042;-71
2021/04/05 07:32:57;;;;;;;21.40;12.28;;;;;;;4.42;71.09;97206.95;1811830;77;21197;-73
2021/04/05 07:35:57;;;;;;;15.45;11.08;;;;;;;4.48;71.15;97203.98;1807671;77;21074;-73
2021/04/05 07:38:51;;;;;;;23.42;12.00;;;;;;;4.52;71.14;97205.93;1706007;82;21669;-72
2021/04/05 07:41:31;;;;;;;20.95;13.32;;;;;;;4.51;71.14;97199.94;1711049;81;21130;-74
2021/04/05 07:44:06;;;;;;;19.15;11.30;;;;;;;4.59;71.37;97195.55;1712663;81;21100;-74
2021/04/05 08:12:30;;;;;;;17.17;12.00;;;;;;;4.99;71.57;97143.89;1756761;74;21714;-75
2021/04/05 08:15:12;;;;;;;19.65;11.28;;;;;;;4.93;71.42;97147.70;1830105;75;21583;-76
2021/04/05 08:17:56;;;;;;;21.10;12.65;;;;;;;4.86;71.67;97142.55;1816576;76;21624;-77
2021/04/05 08:21:04;;;;;;;19.25;12.47;;;;;;;4.84;71.72;97145.70;1824209;75;21185;-76
2021/04/05 08:23:52;;;;;;;19.32;10.65;;;;;;;4.85;71.79;97152.55;1820786;76;21172;-76
2021/04/05 08:26:37;;;;;;;15.03;10.85;;;;;;;4.87;71.83;97150.66;1819634;76;21176;-77
2021/04/05 08:29:46;;;;;;;19.82;12.40;;;;;;;4.82;71.68;97135.47;1808255;75;21177;-77
2021/04/05 08:32:52;;;;;;;16.25;12.05;;;;;;;4.75;71.84;97156.64;1835091;75;21313;-77
2021/04/05 08:35:37;;;;;;;18.32;11.78;;;;;;;4.74;71.97;97151.12;1837617;76;22356;-70
2021/04/05 08:38:33;;;;;;;15.00;10.53;;;;;;;4.74;72.02;97162.75;1828507;77;21623;-70
2021/04/05 08:41:45;;;;;;;19.77;12.28;;;;;;;4.75;72.17;97151.47;1840664;75;21602;-71
2021/04/05 08:44:23;;;;;;;18.92;14.00;;;;;;;4.75;72.10;97143.72;1793580;77;21758;-71
2021/04/05 08:46:54;;;;;;;20.85;13.93;;;;;;;4.80;72.29;97146.84;1825139;76;21182;-71
2021/04/05 08:49:23;;;;;;;17.90;12.93;;;;;;;4.86;72.43;97138.67;1823868;77;21159;-71
2021/04/05 08:51:57;;;;;;;19.95;13.13;;;;;;;4.93;72.32;97139.95;1825453;75;21256;-71
2021/04/05 08:54:27;;;;;;;19.45;12.93;;;;;;;4.95;72.11;97139.36;1822176;76;21187;-71
2021/04/05 08:57:25;;;;;;;14.55;12.25;;;;;;;4.91;72.18;97141.80;1833379;75;21176;-71
2021/04/05 09:00:06;;;;;;;15.85;11.78;;;;;;;4.88;72.31;97139.41;1829261;75;21236;-71
2021/04/05 09:05:28;;;;;;;17.05;11.93;;;;;;;4.82;72.31;97141.94;1787748;77;21298;-70
2021/04/05 09:08:08;;;;;;;17.37;12.40;;;;;;;4.78;72.28;97151.27;1834590;75;21142;-70
2021/04/05 09:10:50;;;;;;;20.08;12.18;;;;;;;4.71;72.34;97138.75;1829275;76;21194;-70
2021/04/05 09:13:22;;;;;;;18.85;12.45;;;;;;;4.61;72.36;97148.02;1837404;76;21158;-70
2021/04/05 09:16:33;;;;;;;14.47;10.50;;;;;;;4.52;72.52;97151.20;1837786;76;21193;-71
2021/04/05 09:19:41;;;;;;;15.50;10.95;;;;;;;4.48;72.68;97154.45;1815035;76;21267;-70
2021/04/05 09:22:56;;;;;;;12.90;10.35;;;;;;;4.38;72.63;97155.12;1780209;78;21230;-71
2021/04/05 09:25:34;;;;;;;14.20;10.58;;;;;;;4.28;72.90;97160.48;1784834;78;21544;-70
2021/04/05 09:28:45;;;;;;;16.00;11.93;;;;;;;4.24;73.01;97160.68;1777863;78;21304;-70
2021/04/05 09:31:28;;;;;;;12.88;10.55;;;;;;;4.25;72.98;97154.58;1814745;77;22239;-71
2021/04/05 09:34:17;;;;;;;12.35;9.98;;;;;;;4.17;73.00;97162.01;1786895;78;21247;-71
2021/04/05 09:37:10;;;;;;;15.28;10.10;;;;;;;4.16;73.15;97161.62;1788938;77;22051;-70
2021/04/05 09:40:05;;;;;;;12.20;9.98;;;;;;;4.22;73.13;97156.53;1809885;77;21562;-70
2021/04/05 09:43:01;;;;;;;12.13;9.48;;;;;;;4.30;73.42;97151.72;1814769;77;21657;-70
2021/04/05 09:46:19;;;;;;;10.93;9.50;;;;;;;4.32;73.21;97151.64;1798655;78;21279;-70
2021/04/05 09:49:23;;;;;;;11.97;9.35;;;;;;;4.30;73.03;97163.81;1807884;77;21199;-72
2021/04/05 09:52:04;;;;;;;13.83;9.55;;;;;;;4.20;73.15;97152.77;1800092;77;21505;-72
2021/04/05 09:54:51;;;;;;;11.57;9.25;;;;;;;4.08;73.21;97157.39;1810032;76;21235;-73
2021/04/05 09:57:35;;;;;;;11.15;9.25;;;;;;;4.02;73.38;97157.77;1832170;76;21150;-72
2021/04/05 10:00:13;;;;;;;14.40;8.98;;;;;;;3.97;73.38;97157.22;1816011;76;22203;-73
2021/04/05 10:02:53;;;;;;;12.37;8.05;;;;;;;3.94;73.51;97156.13;1849941;76;21607;-73
2021/04/05 10:05:24;;;;;;;10.03;8.60;;;;;;;3.95;73.57;97153.89;1837500;75;21035;-72
2021/04/05 10:07:54;;;;;;;15.08;8.93;;;;;;;3.96;73.55;97150.41;1840805;76;21545;-72
2021/04/05 10:10:25;;;;;;;12.63;9.28;;;;;;;3.96;73.70;97142.67;1841433;75;21114;-73
2021/04/05 10:12:55;;;;;;;12.05;8.48;;;;;;;3.95;73.62;97140.98;1762618;78;21704;-72
2021/04/05 10:15:25;;;;;;;9.95;8.90;;;;;;;4.00;73.78;97151.87;1846509;75;21671;-72
2021/04/05 10:17:59;;;;;;;13.25;9.68;;;;;;;4.03;73.75;97143.93;1849105;76;21156;-72
2021/04/05 10:20:31;;;;;;;9.45;7.80;;;;;;;4.04;73.63;97150.77;1840145;76;21668;-72
2021/04/05 10:23:10;;;;;;;12.35;8.73;;;;;;;4.09;73.73;97142.72;1809070;77;21134;-72
2021/04/05 10:25:39;;;;;;;12.43;9.38;;;;;;;4.01;73.51;97150.97;1839326;75;21186;-72
2021/04/05 10:28:08;;;;;;;11.97;8.48;;;;;;;4.04;73.66;97149.48;1840582;76;21257;-72
2021/04/05 10:30:39;;;;;;;9.30;7.35;;;;;;;3.99;73.65;97151.05;1803127;76;21192;-72
2021/04/05 10:33:09;;;;;;;3.80;2.90;;;;;;;3.93;73.61;97171.26;1836412;75;21277;-72
2021/04/05 10:35:45;;;;;;;2.12;1.62;;;;;;;3.54;72.83;97175.31;1844109;76;21614;-72
2021/04/05 10:38:12;;;;;;;2.92;1.72;;;;;;;3.12;72.72;97179.02;1837451;76;21611;-70
2021/04/05 10:40:39;;;;;;;3.02;1.72;;;;;;;2.78;72.92;97178.84;1839552;75;21144;-70
2021/04/05 10:43:14;;;;;;;2.75;1.65;;;;;;;2.57;73.20;97183.42;1847001;75;21156;-71
2021/04/05 10:45:46;;;;;;;2.85;1.95;;;;;;;2.41;73.51;97191.19;1846457;75;22037;-70
2021/04/05 10:48:40;;;;;;;2.30;1.80;;;;;;;2.30;73.64;97183.22;1834921;76;21542;-71
2021/04/05 10:51:21;;;;;;;1.80;1.30;;;;;;;2.34;73.94;97192.42;1829681;76;22438;-71
2021/04/05 10:54:02;;;;;;;1.37;0.93;;;;;;;2.39;73.83;97190.44;1796522;77;21202;-72
2021/04/05 10:56:35;;;;;;;1.65;1.27;;;;;;;2.40;73.78;97185.64;1840106;75;21194;-71
2021/04/05 10:59:30;;;;;;;1.95;1.27;;;;;;;2.37;73.94;97181.95;1835201;75;21138;-71
2021/04/05 11:02:02;;;;;;;1.92;1.17;;;;;;;2.45;74.06;97192.67;1828244;77;21134;-71
2021/04/05 11:04:32;;;;;;;2.92;1.50;;;;;;;2.52;74.07;97192.33;1834571;76;21166;-71
2021/04/05 11:07:02;;;;;;;2.87;1.60;;;;;;;2.60;74.13;97187.58;1852309;75;21284;-71
2021/04/05 11:09:31;;;;;;;3.77;2.10;;;;;;;2.61;73.99;97189.27;1807746;76;21702;-71
2021/04/05 11:12:00;;;;;;;3.40;2.20;;;;;;;2.65;74.06;97186.88;1794385;76;21236;-71
2021/04/05 11:14:28;;;;;;;9.63;4.87;;;;;;;2.77;74.27;97188.75;1819163;77;21115;-72
2021/04/05 11:16:59;;;;;;;6.17;4.20;;;;;;;2.81;74.02;97191.55;1802315;77;21400;-72
2021/04/05 11:19:37;;;;;;;7.55;4.20;;;;;;;2.86;74.05;97177.95;1830715;76;21647;-72
2021/04/05 11:22:04;;;;;;;;;;;;;;;2.91;74.14;97182.39;1786275;77;21289;-73
2021/04/05 11:24:35;;;;;;;3.98;2.00;;;;;;;3.06;74.26;97177.27;1821293;76;20178;-70
2021/04/05 11:27:06;;;;;;;5.20;2.55;;;;;;;3.30;74.35;97171.13;1817696;77;21130;-71
2021/04/05 11:29:38;;;;;;;4.70;3.40;;;;;;;3.48;74.25;97186.00;1818389;76;21226;-71
2021/04/05 11:32:13;;;;;;;4.62;1.80;;;;;;;3.66;74.17;97186.18;1833909;77;21233;-71
2021/04/05 11:34:43;;;;;;;3.95;1.80;;;;;;;3.79;74.00;97180.66;1807735;76;21171;-72
2021/04/05 11:37:14;;;;;;;3.83;1.50;;;;;;;3.93;74.14;97191.91;1845814;75;21232;-71
2021/04/05 11:39:46;;;;;;;5.37;2.70;;;;;;;4.11;74.14;97197.22;1830798;76;21240;-71
2021/04/05 11:42:14;;;;;;;3.83;1.92;;;;;;;4.23;74.08;97195.20;1836797;76;21232;-71
2021/04/05 11:44:51;;;;;;;4.53;2.20;;;;;;;4.29;73.97;97199.16;1841851;75;21038;-71
2021/04/05 11:47:20;;;;;;;2.90;1.60;;;;;;;4.29;73.89;97195.75;1849735;76;21224;-71
2021/04/05 11:49:48;;;;;;;3.40;1.50;;;;;;;4.24;73.72;97203.30;1781936;78;21171;-71
2021/04/05 11:52:23;;;;;;;2.77;1.50;;;;;;;4.22;73.89;97190.94;1826911;76;21590;-71
2021/04/05 11:55:03;;;;;;;3.12;1.32;;;;;;;4.21;73.90;97191.88;1840032;76;22743;-70
2021/04/05 11:57:51;;;;;;;1.47;0.70;;;;;;;4.13;73.93;97201.84;1745171;80;21041;-69
2021/04/05 12:00:26;;;;;;;4.25;0.40;;;;;;;3.45;73.47;97248.09;1742331;81;21546;-70
2021/04/05 12:03:18;;;;;;;0.30;0.20;;;;;;;1.94;74.23;97251.19;1748457;81;21022;-70
2021/04/05 12:06:09;;;;;;;0.40;0.30;;;;;;;1.11;76.76;97262.22;1744998;80;21706;-70
2021/04/05 12:08:47;;;;;;;0.28;0.28;;;;;;;0.75;76.15;97262.23;1745136;80;21009;-70
2021/04/05 12:11:17;;;;;;;0.82;0.30;;;;;;;0.52;76.90;97264.13;1746464;81;21127;-71
2021/04/05 12:13:52;;;;;;;1.12;0.70;;;;;;;0.37;78.10;97258.44;1720960;80;21642;-70
2021/04/05 12:16:24;;;;;;;1.27;0.50;;;;;;;0.45;77.61;97238.38;1744054;80;22230;-70
2021/04/05 12:18:54;;;;;;;0.40;0.40;;;;;;;0.53;77.50;97240.11;1764244;80;21236;-70
2021/04/05 12:21:30;;;;;;;1.85;0.60;;;;;;;0.65;76.98;97235.70;1769413;79;21209;-70
2021/04/05 12:24:01;;;;;;;2.10;0.65;;;;;;;0.76;76.78;97245.94;1744603;82;21575;-68
2021/04/05 12:26:31;;;;;;;1.60;0.70;;;;;;;0.80;76.68;97266.70;1771074;80;21259;-69
2021/04/05 12:29:05;;;;;;;1.25;0.70;;;;;;;0.80;76.65;97273.13;1772294;79;21210;-70
2021/04/05 12:31:34;;;;;;;2.42;1.10;;;;;;;0.73;77.19;97270.45;1768305;80;21098;-70
2021/04/05 12:34:14;;;;;;;3.30;1.00;;;;;;;0.55;77.04;97281.14;1741907;82;21160;-70
2021/04/05 12:36:42;;;;;;;1.98;1.10;;;;;;;0.46;77.20;97290.09;1734717;81;21241;-71
2021/04/05 12:39:11;;;;;;;1.80;0.98;;;;;;;0.26;77.67;97288.88;1744557;81;22196;-70
2021/04/05 12:41:45;;;;;;;3.50;1.55;;;;;;;0.29;78.27;97278.02;1735948;81;21165;-70
2021/04/05 12:44:20;;;;;;;2.10;1.00;;;;;;;0.24;78.21;97284.27;1738655;80;21698;-70
2021/04/05 12:46:52;;;;;;;1.50;0.80;;;;;;;0.21;78.18;97291.19;1731413;81;21195;-68
2021/04/05 12:49:29;;;;;;;2.85;1.20;;;;;;;0.18;78.69;97300.77;1736143;81;21175;-69
2021/04/05 12:52:06;;;;;;;1.93;0.97;;;;;;;0.16;78.53;97308.52;1734567;81;21210;-68
2021/04/05 12:54:37;;;;;;;2.75;0.70;;;;;;;0.09;78.27;97316.58;1739341;81;25021;-69
2021/04/05 12:57:06;;;;;;;4.10;1.15;;;;;;;0.07;78.61;97319.19;1733135;81;21182;-69